Time;durP1;ratioP1;P1;durP2;ratioP2;P2;SDS_P1;SDS_P2;PMS_P1;PMS_P2;Temp;Humidity;BMP_temperature;BMP_pressure;BME280_temperature;BME280_humidity;BME280_pressure;Samples;Min_cycle;Max_cycle;Signal;HPM_P1;HPM_P2
2020/12/06 00:01:31;;;;;;;15.30;11.50;;;3.30;1.00;;;;;;4947226;28;20210;-72
2020/12/06 00:03:57;;;;;;;17.80;13.10;;;3.20;1.00;;;;;;4950667;28;20470;-72
2020/12/06 00:06:23;;;;;;;15.60;11.80;;;3.10;1.00;;;;;;4947927;28;20469;-72
2020/12/06 00:08:50;;;;;;;17.77;13.33;;;3.10;1.00;;;;;;4946882;28;20207;-72
2020/12/06 00:11:17;;;;;;;17.60;13.07;;;3.10;1.00;;;;;;4955172;28;20551;-72
2020/12/06 00:13:43;;;;;;;17.80;12.37;;;3.10;1.00;;;;;;4967009;28;20451;-72
2020/12/06 00:16:17;;;;;;;18.27;13.80;;;3.10;1.00;;;;;;4965948;28;20945;-72
2020/12/06 00:18:47;;;;;;;15.57;11.80;;;3.00;1.00;;;;;;4968233;28;20801;-72
2020/12/06 00:21:14;;;;;;;19.87;12.70;;;3.00;1.00;;;;;;4968486;28;20465;-72
2020/12/06 00:23:39;;;;;;;20.13;13.20;;;3.00;1.00;;;;;;4974605;28;20532;-71
2020/12/06 00:26:05;;;;;;;20.80;13.67;;;2.90;1.00;;;;;;4974414;28;20467;-72
2020/12/06 00:28:31;;;;;;;17.13;11.43;;;2.90;1.00;;;;;;4961244;28;20189;-72
2020/12/06 00:30:57;;;;;;;18.90;12.83;;;2.80;1.00;;;;;;4968289;28;20185;-72
2020/12/06 00:33:22;;;;;;;22.07;13.73;;;2.80;1.00;;;;;;4946908;28;20201;-71
2020/12/06 00:35:48;;;;;;;17.97;13.23;;;2.80;1.00;;;;;;4950449;28;24794;-72
2020/12/06 00:38:14;;;;;;;18.60;12.60;;;2.80;1.00;;;;;;4948816;28;20464;-72
2020/12/06 00:40:39;;;;;;;20.50;12.40;;;2.80;1.00;;;;;;4947455;28;21222;-72
2020/12/06 00:43:05;;;;;;;20.97;14.53;;;2.80;1.00;;;;;;4949264;28;20189;-72
2020/12/06 00:45:31;;;;;;;20.13;11.83;;;2.80;1.00;;;;;;4949812;28;20204;-72
2020/12/06 00:47:56;;;;;;;25.43;13.17;;;2.90;1.00;;;;;;4945550;28;20328;-72
2020/12/06 00:50:22;;;;;;;18.57;13.10;;;2.80;1.00;;;;;;4951393;28;20202;-72
2020/12/06 00:52:49;;;;;;;17.90;12.93;;;2.80;1.00;;;;;;4949737;28;20464;-72
2020/12/06 00:55:14;;;;;;;18.60;12.73;;;2.80;1.00;;;;;;4948760;28;20512;-72
2020/12/06 00:57:40;;;;;;;18.87;13.00;;;2.90;1.00;;;;;;4945588;28;20250;-72
2020/12/06 01:00:08;;;;;;;20.93;13.07;;;3.00;1.00;;;;;;4946773;28;20241;-72
2020/12/06 01:02:34;;;;;;;19.63;12.30;;;3.00;1.00;;;;;;4950857;28;20281;-72
2020/12/06 01:05:00;;;;;;;20.10;13.47;;;3.00;1.00;;;;;;4944583;28;20444;-72
2020/12/06 01:07:26;;;;;;;19.73;12.60;;;3.00;1.00;;;;;;4970745;28;20226;-72
2020/12/06 01:09:52;;;;;;;21.30;13.83;;;3.00;1.00;;;;;;4943487;28;20205;-72
2020/12/06 01:12:17;;;;;;;22.90;12.13;;;3.00;1.00;;;;;;4944994;28;20445;-71
2020/12/06 01:14:43;;;;;;;20.67;13.27;;;3.00;1.00;;;;;;4948351;28;20250;-72
2020/12/06 01:17:08;;;;;;;21.47;13.10;;;3.00;1.00;;;;;;4950413;28;20182;-72
2020/12/06 01:19:34;;;;;;;20.50;13.30;;;2.90;1.00;;;;;;4951751;28;20534;-71
2020/12/06 01:22:00;;;;;;;18.30;13.03;;;3.00;1.00;;;;;;4954280;28;20255;-72
2020/12/06 01:24:26;;;;;;;23.13;15.47;;;3.00;1.00;;;;;;4958760;28;20304;-72
2020/12/06 01:26:51;;;;;;;19.10;13.60;;;3.00;1.00;;;;;;4952066;28;20251;-72
2020/12/06 01:29:17;;;;;;;19.70;13.80;;;3.00;1.00;;;;;;4957515;28;20693;-73
2020/12/06 01:31:47;;;;;;;27.60;16.30;;;3.00;1.00;;;;;;4955060;28;20211;-72
2020/12/06 01:34:13;;;;;;;29.00;17.23;;;3.00;1.00;;;;;;4950698;28;20180;-72
2020/12/06 01:36:39;;;;;;;27.57;16.03;;;3.10;1.00;;;;;;4952189;28;21045;-72
2020/12/06 01:39:06;;;;;;;16.73;12.57;;;3.20;1.00;;;;;;4954165;28;24923;-72
2020/12/06 01:41:32;;;;;;;20.43;14.03;;;3.20;1.00;;;;;;4948150;28;20439;-72
2020/12/06 01:43:59;;;;;;;19.87;13.43;;;3.20;1.00;;;;;;4951578;28;20443;-72
2020/12/06 01:46:25;;;;;;;27.43;17.00;;;3.10;1.00;;;;;;4954493;28;21152;-72
2020/12/06 01:48:55;;;;;;;16.93;11.73;;;3.10;1.00;;;;;;4953202;28;20443;-71
2020/12/06 01:51:23;;;;;;;22.07;12.47;;;2.90;1.00;;;;;;4957321;28;20465;-72
2020/12/06 01:53:49;;;;;;;20.10;13.43;;;2.80;1.00;;;;;;4956176;28;20822;-71
2020/12/06 01:56:16;;;;;;;18.23;12.53;;;2.80;1.00;;;;;;4957319;28;20922;-72
2020/12/06 01:58:41;;;;;;;19.00;13.40;;;2.70;1.00;;;;;;4964931;28;20503;-72
2020/12/06 02:01:09;;;;;;;19.93;14.07;;;2.70;1.00;;;;;;4950946;28;20441;-72
2020/12/06 02:03:35;;;;;;;29.87;14.00;;;2.60;1.00;;;;;;4958154;28;20216;-71
2020/12/06 02:06:01;;;;;;;17.20;12.60;;;2.60;1.00;;;;;;4954756;28;20467;-71
2020/12/06 02:08:27;;;;;;;20.37;12.70;;;2.50;1.00;;;;;;4949133;28;20464;-72
2020/12/06 02:10:54;;;;;;;29.03;14.70;;;2.60;1.00;;;;;;4946161;28;20447;-72
2020/12/06 02:13:23;;;;;;;23.70;13.70;;;2.60;1.00;;;;;;4948158;28;20505;-72
2020/12/06 02:15:49;;;;;;;18.03;12.00;;;2.60;1.00;;;;;;4947641;28;20601;-72
2020/12/06 02:18:15;;;;;;;21.93;14.10;;;2.70;1.00;;;;;;4953170;28;21138;-72
2020/12/06 02:20:41;;;;;;;24.03;15.17;;;2.60;1.00;;;;;;4946097;28;20922;-72
2020/12/06 02:23:07;;;;;;;19.37;12.90;;;2.60;1.00;;;;;;4948535;28;20469;-72
2020/12/06 02:25:36;;;;;;;22.50;12.80;;;2.70;1.00;;;;;;4952367;28;20204;-72
2020/12/06 02:28:04;;;;;;;20.00;14.13;;;2.70;1.00;;;;;;4956163;28;20488;-72
2020/12/06 02:30:30;;;;;;;22.80;12.40;;;2.70;1.00;;;;;;4959024;28;20456;-72
2020/12/06 02:32:55;;;;;;;19.73;12.40;;;2.70;1.00;;;;;;4959583;28;20829;-72
2020/12/06 02:35:21;;;;;;;15.87;11.90;;;2.70;1.00;;;;;;4956521;28;20498;-72
2020/12/06 02:37:47;;;;;;;16.90;12.30;;;2.70;1.00;;;;;;4960565;28;20211;-72
2020/12/06 02:40:13;;;;;;;18.27;11.77;;;2.70;1.00;;;;;;4959714;28;20185;-72
2020/12/06 02:42:38;;;;;;;21.20;12.70;;;2.70;1.00;;;;;;4958888;28;20475;-72
2020/12/06 02:45:05;;;;;;;20.13;12.67;;;2.70;1.00;;;;;;4957076;28;20235;-72
2020/12/06 02:47:30;;;;;;;16.87;11.97;;;2.80;1.00;;;;;;4957043;28;20193;-72
2020/12/06 02:49:56;;;;;;;16.50;12.10;;;2.70;1.00;;;;;;4950757;28;20467;-72
2020/12/06 02:52:22;;;;;;;17.60;11.90;;;2.70;1.00;;;;;;4952396;28;20223;-72
2020/12/06 02:54:48;;;;;;;14.37;10.80;;;2.80;1.00;;;;;;4956652;28;20304;-72
2020/12/06 02:57:13;;;;;;;16.43;11.50;;;2.70;1.00;;;;;;4955262;28;20905;-72
2020/12/06 02:59:39;;;;;;;19.27;11.70;;;2.60;1.00;;;;;;4952975;28;20889;-72
2020/12/06 03:02:05;;;;;;;18.17;12.20;;;2.60;1.00;;;;;;4952352;28;20188;-71
2020/12/06 03:04:30;;;;;;;19.40;12.80;;;2.60;1.00;;;;;;4958730;28;20188;-72
2020/12/06 03:06:56;;;;;;;19.10;12.30;;;2.70;1.00;;;;;;4955525;28;20533;-72
2020/12/06 03:09:22;;;;;;;16.20;11.83;;;2.70;1.00;;;;;;4962010;28;20284;-72
2020/12/06 03:11:48;;;;;;;18.07;10.53;;;2.60;1.00;;;;;;4954653;28;20945;-72
2020/12/06 03:14:13;;;;;;;15.57;11.73;;;2.70;1.00;;;;;;4956070;28;20186;-72
2020/12/06 03:16:39;;;;;;;16.63;11.57;;;2.90;1.00;;;;;;4953727;28;20825;-72
2020/12/06 03:19:05;;;;;;;18.33;11.00;;;3.00;1.00;;;;;;4954939;28;20190;-72
2020/12/06 03:21:30;;;;;;;17.90;11.33;;;3.10;1.00;;;;;;4958186;28;21020;-72
2020/12/06 03:23:56;;;;;;;15.17;10.70;;;3.20;1.00;;;;;;4958366;28;20232;-72
2020/12/06 03:26:22;;;;;;;17.07;11.50;;;3.00;1.00;;;;;;4956200;28;20186;-72
2020/12/06 03:28:48;;;;;;;13.80;10.13;;;3.10;1.00;;;;;;4958421;28;20242;-72
2020/12/06 03:31:13;;;;;;;20.37;12.30;;;3.20;1.00;;;;;;4958129;28;20192;-72
2020/12/06 03:33:39;;;;;;;15.90;11.13;;;3.30;1.00;;;;;;4960133;28;20193;-72
2020/12/06 03:36:04;;;;;;;20.83;12.27;;;3.30;1.00;;;;;;4960848;28;20245;-72
2020/12/06 03:38:30;;;;;;;15.83;10.93;;;3.20;1.00;;;;;;4956524;28;20210;-72
2020/12/06 03:40:55;;;;;;;19.27;12.27;;;3.10;1.00;;;;;;4959067;28;20306;-72
2020/12/06 03:43:21;;;;;;;22.43;14.30;;;3.10;1.00;;;;;;4960216;28;20572;-72
2020/12/06 03:45:47;;;;;;;20.20;11.73;;;3.10;1.00;;;;;;4955852;28;20251;-72
2020/12/06 03:48:13;;;;;;;18.53;12.40;;;3.10;1.00;;;;;;4959462;28;20856;-72
2020/12/06 03:50:38;;;;;;;18.60;12.17;;;3.10;1.00;;;;;;4956038;28;20346;-72
2020/12/06 03:53:04;;;;;;;14.90;11.20;;;3.10;1.00;;;;;;4961875;28;20296;-72
2020/12/06 03:55:30;;;;;;;15.73;11.20;;;3.00;1.00;;;;;;4960093;28;20224;-72
2020/12/06 03:57:55;;;;;;;15.70;11.50;;;3.00;1.00;;;;;;4957751;28;20683;-71
2020/12/06 04:00:21;;;;;;;16.47;12.43;;;3.10;1.00;;;;;;4958798;28;21219;-72
2020/12/06 04:02:51;;;;;;;16.20;11.43;;;3.10;1.00;;;;;;4955283;28;20681;-72
2020/12/06 04:05:21;;;;;;;12.80;10.47;;;3.10;1.00;;;;;;4957388;28;20189;-72
2020/12/06 04:07:51;;;;;;;15.80;11.53;;;3.10;1.00;;;;;;4960808;28;20542;-71
2020/12/06 04:10:18;;;;;;;16.80;10.97;;;3.10;1.00;;;;;;4959252;28;21151;-72
2020/12/06 04:12:44;;;;;;;18.20;12.10;;;3.10;1.00;;;;;;4958722;28;20454;-72
2020/12/06 04:15:10;;;;;;;15.37;10.97;;;3.10;1.00;;;;;;4957891;28;20475;-72
2020/12/06 04:17:36;;;;;;;17.87;11.80;;;3.00;1.00;;;;;;4955297;28;20436;-72
2020/12/06 04:20:03;;;;;;;21.43;12.70;;;3.00;1.00;;;;;;4959827;28;20189;-72
2020/12/06 04:22:29;;;;;;;18.73;11.50;;;3.00;1.00;;;;;;4959037;28;22196;-72
2020/12/06 04:24:55;;;;;;;15.40;11.90;;;3.10;1.00;;;;;;4958945;28;20463;-73
2020/12/06 04:27:20;;;;;;;15.67;10.93;;;3.10;1.00;;;;;;4956876;28;20528;-72
2020/12/06 04:29:46;;;;;;;19.67;11.80;;;3.00;1.00;;;;;;4955719;28;20200;-71
2020/12/06 04:32:12;;;;;;;17.03;11.33;;;3.00;1.00;;;;;;4956146;28;20197;-72
2020/12/06 04:34:37;;;;;;;18.10;11.73;;;3.00;1.00;;;;;;4958698;28;20624;-72
2020/12/06 04:37:04;;;;;;;16.13;11.17;;;3.00;1.00;;;;;;4954932;28;20213;-72
2020/12/06 04:39:30;;;;;;;18.60;11.00;;;3.00;1.00;;;;;;4955821;28;20189;-72
2020/12/06 04:41:56;;;;;;;18.97;12.40;;;3.00;1.00;;;;;;4947129;28;20500;-72
2020/12/06 04:44:21;;;;;;;19.17;11.80;;;3.10;1.00;;;;;;4948846;28;20535;-72
2020/12/06 04:46:48;;;;;;;16.80;11.27;;;3.20;1.00;;;;;;4955920;28;20196;-72
2020/12/06 04:49:45;;;;;;;16.27;11.13;;;3.10;1.00;;;;;;4953301;28;20193;-72
2020/12/06 04:52:19;;;;;;;19.90;12.23;;;3.10;1.00;;;;;;4956046;28;20443;-72
2020/12/06 04:55:01;;;;;;;19.37;12.10;;;3.00;1.00;;;;;;4968813;28;20890;-72
2020/12/06 04:57:29;;;;;;;16.20;11.73;;;2.90;1.00;;;;;;4960336;28;21471;-72
2020/12/06 05:00:07;;;;;;;18.40;12.70;;;2.70;1.00;;;;;;4962760;28;20445;-72
2020/12/06 05:02:41;;;;;;;18.47;12.30;;;2.70;1.00;;;;;;4952265;28;22050;-72
2020/12/06 05:05:07;;;;;;;20.93;13.10;;;2.70;1.00;;;;;;4960141;28;20462;-72
2020/12/06 05:07:34;;;;;;;22.63;15.33;;;2.70;1.00;;;;;;4959749;28;20456;-72
2020/12/06 05:10:00;;;;;;;20.73;13.90;;;2.70;1.00;;;;;;4951360;28;20255;-72
2020/12/06 05:12:26;;;;;;;22.07;14.23;;;2.70;1.00;;;;;;4946326;28;20444;-72
2020/12/06 05:14:52;;;;;;;18.37;13.20;;;2.70;1.00;;;;;;4948744;28;20700;-72
2020/12/06 05:17:18;;;;;;;23.83;14.43;;;2.70;1.00;;;;;;4949249;28;20544;-72
2020/12/06 05:19:43;;;;;;;21.30;15.53;;;2.70;1.00;;;;;;4957076;28;20445;-72
2020/12/06 05:22:10;;;;;;;22.60;14.80;;;2.80;1.00;;;;;;4954854;28;20297;-72
2020/12/06 05:24:35;;;;;;;21.80;15.23;;;2.90;1.00;;;;;;4955319;28;20332;-72
2020/12/06 05:27:01;;;;;;;24.00;15.47;;;2.90;1.00;;;;;;4956713;28;20433;-72
2020/12/06 05:29:28;;;;;;;23.50;15.40;;;3.00;1.00;;;;;;4955947;28;20348;-72
2020/12/06 05:31:58;;;;;;;21.97;14.20;;;2.90;1.00;;;;;;4956134;28;20455;-71
2020/12/06 05:34:24;;;;;;;24.00;15.23;;;3.00;1.00;;;;;;4958059;28;20965;-72
2020/12/06 05:36:50;;;;;;;23.97;16.10;;;3.00;1.00;;;;;;4955079;28;20532;-72
2020/12/06 05:39:20;;;;;;;19.10;13.60;;;3.00;1.00;;;;;;4959069;28;20296;-72
2020/12/06 05:41:47;;;;;;;23.10;15.60;;;3.00;1.00;;;;;;4957465;28;20280;-72
2020/12/06 05:44:18;;;;;;;29.63;15.77;;;3.00;1.00;;;;;;4956098;28;20455;-72
2020/12/06 05:46:44;;;;;;;24.07;14.67;;;3.00;1.00;;;;;;4956682;28;20498;-72
2020/12/06 05:49:10;;;;;;;23.10;15.07;;;2.90;1.00;;;;;;4955001;28;20547;-72
2020/12/06 05:51:35;;;;;;;21.97;14.80;;;2.90;1.00;;;;;;4955964;28;20337;-72
2020/12/06 05:54:01;;;;;;;22.77;15.00;;;2.80;1.00;;;;;;4956863;28;20224;-72
2020/12/06 05:56:28;;;;;;;21.73;15.60;;;2.80;1.00;;;;;;4951459;28;21605;-71
2020/12/06 05:58:54;;;;;;;25.77;17.80;;;2.70;1.00;;;;;;4958196;28;20193;-72
2020/12/06 06:01:21;;;;;;;34.10;20.33;;;2.70;1.00;;;;;;4953226;28;20447;-72
2020/12/06 06:03:49;;;;;;;27.70;17.83;;;2.80;1.00;;;;;;4958735;28;20260;-71
2020/12/06 06:06:30;;;;;;;25.07;15.90;;;2.80;1.00;;;;;;4952425;28;21144;-72
2020/12/06 06:09:00;;;;;;;28.40;18.20;;;2.80;1.00;;;;;;4945407;28;20519;-72
2020/12/06 06:11:28;;;;;;;25.47;15.40;;;2.80;1.00;;;;;;4946012;28;20830;-72
2020/12/06 06:14:05;;;;;;;22.47;15.57;;;2.80;1.00;;;;;;4954697;28;21133;-72
2020/12/06 06:16:32;;;;;;;26.23;17.27;;;2.80;1.00;;;;;;4951556;28;20481;-71
2020/12/06 06:19:03;;;;;;;25.33;14.27;;;2.70;1.00;;;;;;4958592;28;20950;-72
2020/12/06 06:21:32;;;;;;;26.87;16.70;;;2.70;1.00;;;;;;4955570;28;20544;-72
2020/12/06 06:24:01;;;;;;;26.63;16.10;;;2.70;1.00;;;;;;4961767;28;20468;-72
2020/12/06 06:26:31;;;;;;;21.03;15.10;;;2.60;1.00;;;;;;4950429;28;20447;-72
2020/12/06 06:28:57;;;;;;;25.53;16.90;;;2.70;1.00;;;;;;4952713;28;20440;-72
2020/12/06 06:31:27;;;;;;;27.77;17.10;;;2.60;1.00;;;;;;4955401;28;20464;-72
2020/12/06 06:33:53;;;;;;;22.60;15.37;;;2.60;1.00;;;;;;4954040;28;20173;-72
2020/12/06 06:36:22;;;;;;;24.30;14.73;;;2.60;1.00;;;;;;4950429;28;20892;-71
2020/12/06 06:38:49;;;;;;;26.77;15.07;;;2.70;1.00;;;;;;4954732;28;20477;-71
2020/12/06 06:41:15;;;;;;;26.30;16.60;;;2.70;1.00;;;;;;4953725;28;20809;-72
2020/12/06 06:43:42;;;;;;;22.53;15.47;;;2.60;1.00;;;;;;4954164;28;20562;-71
2020/12/06 06:46:16;;;;;;;25.93;16.13;;;2.70;1.00;;;;;;4952580;28;20558;-71
2020/12/06 06:48:47;;;;;;;25.87;16.30;;;2.70;1.00;;;;;;4955183;28;20820;-71
2020/12/06 06:51:20;;;;;;;22.97;15.60;;;2.60;1.00;;;;;;4954831;28;21904;-71
2020/12/06 06:53:47;;;;;;;27.50;16.40;;;2.60;1.00;;;;;;4949469;28;21060;-71
2020/12/06 06:56:18;;;;;;;20.80;15.17;;;2.60;1.00;;;;;;4941538;28;20704;-71
2020/12/06 06:58:50;;;;;;;30.30;18.07;;;2.60;1.00;;;;;;4947586;28;20441;-71
2020/12/06 07:01:19;;;;;;;27.47;18.47;;;2.60;1.00;;;;;;4948419;28;20451;-71
2020/12/06 07:03:53;;;;;;;27.70;18.57;;;2.60;9.00;;;;;;4953095;28;20449;-71
2020/12/06 07:06:48;;;;;;;26.70;16.80;;;2.60;13.20;;;;;;4954695;28;20457;-71
2020/12/06 07:09:20;;;;;;;23.90;14.77;;;2.60;26.10;;;;;;4950823;28;20897;-71
2020/12/06 07:11:47;;;;;;;28.47;17.00;;;2.60;26.30;;;;;;4952003;28;20449;-71
2020/12/06 07:14:13;;;;;;;23.30;16.27;;;2.70;26.30;;;;;;4949917;28;20448;-71
2020/12/06 07:16:39;;;;;;;23.50;15.60;;;2.80;19.50;;;;;;4954890;28;20488;-71
2020/12/06 07:19:05;;;;;;;30.93;19.10;;;2.80;14.50;;;;;;4952251;28;20450;-71
2020/12/06 07:21:32;;;;;;;28.87;18.10;;;2.80;6.40;;;;;;4954528;28;20254;-71
2020/12/06 07:23:58;;;;;;;24.60;16.30;;;2.90;8.80;;;;;;4953391;28;20837;-72
2020/12/06 07:26:25;;;;;;;24.20;16.37;;;2.90;1.00;;;;;;4946605;28;20905;-71
2020/12/06 07:28:51;;;;;;;26.07;17.33;;;2.90;1.00;;;;;;4943336;28;20957;-72
2020/12/06 07:31:17;;;;;;;30.70;18.60;;;2.90;1.00;;;;;;4945174;28;20455;-71
2020/12/06 07:33:43;;;;;;;30.30;19.53;;;2.90;5.00;;;;;;4948145;28;20447;-71
2020/12/06 07:36:08;;;;;;;27.53;18.27;;;2.90;1.50;;;;;;4948838;28;20873;-71
2020/12/06 07:38:35;;;;;;;28.10;17.30;;;2.90;1.00;;;;;;4949659;28;20843;-71
2020/12/06 07:41:04;;;;;;;28.83;18.60;;;2.90;1.90;;;;;;4949837;28;20634;-71
2020/12/06 07:43:31;;;;;;;32.50;19.57;;;2.90;4.80;;;;;;4953768;28;20528;-71
2020/12/06 07:45:57;;;;;;;31.33;18.10;;;3.00;1.00;;;;;;4952503;28;20453;-71
2020/12/06 07:48:23;;;;;;;27.77;17.70;;;3.00;1.90;;;;;;4955217;28;21164;-72
2020/12/06 07:50:49;;;;;;;30.20;19.10;;;3.00;7.10;;;;;;4952999;28;20596;-71
2020/12/06 07:53:15;;;;;;;28.47;19.00;;;2.90;11.50;;;;;;4949392;28;20461;-71
2020/12/06 07:55:41;;;;;;;32.10;20.50;;;2.90;18.80;;;;;;4952611;28;20477;-71
2020/12/06 07:58:18;;;;;;;29.00;18.63;;;3.00;22.00;;;;;;4949474;28;20196;-71
2020/12/06 08:00:44;;;;;;;28.70;18.37;;;2.90;18.80;;;;;;4956057;28;21859;-71
2020/12/06 08:03:13;;;;;;;30.73;20.13;;;3.00;20.50;;;;;;4952397;28;20436;-72
2020/12/06 08:05:42;;;;;;;27.90;18.00;;;3.00;22.90;;;;;;4948067;28;20189;-71
2020/12/06 08:08:18;;;;;;;26.50;18.57;;;2.90;20.20;;;;;;4948423;28;20885;-71
2020/12/06 08:10:51;;;;;;;28.90;18.10;;;2.90;40.70;;;;;;4955819;28;20909;-71
2020/12/06 08:13:17;;;;;;;33.60;19.40;;;2.90;45.60;;;;;;4957083;28;20458;-72
2020/12/06 08:15:43;;;;;;;31.70;19.27;;;2.90;46.20;;;;;;4949097;28;20602;-71
2020/12/06 08:18:20;;;;;;;37.90;22.07;;;2.90;71.10;;;;;;4951249;28;20887;-71
2020/12/06 08:20:52;;;;;;;31.37;20.43;;;3.00;68.70;;;;;;4954537;28;20781;-71
2020/12/06 08:23:29;;;;;;;37.30;22.73;;;2.90;63.70;;;;;;4963630;28;20457;-71
2020/12/06 08:25:54;;;;;;;37.47;21.73;;;2.90;83.80;;;;;;4957457;28;20450;-71
2020/12/06 08:28:20;;;;;;;35.67;22.37;;;3.00;95.80;;;;;;4955416;28;20443;-70
2020/12/06 08:30:46;;;;;;;39.93;23.10;;;3.00;90.10;;;;;;4953096;28;21042;-71
2020/12/06 08:33:11;;;;;;;32.23;19.83;;;2.90;99.80;;;;;;4952236;28;20202;-71
2020/12/06 08:35:38;;;;;;;35.30;21.50;;;2.90;99.90;;;;;;4958878;28;20202;-71
2020/12/06 08:38:37;;;;;;;39.63;23.20;;;2.90;99.90;;;;;;4953741;28;20211;-71
2020/12/06 08:41:12;;;;;;;37.00;22.87;;;2.90;99.90;;;;;;4946948;28;20453;-71
2020/12/06 08:43:50;;;;;;;42.90;22.00;;;2.90;99.90;;;;;;4954882;28;20446;-71
2020/12/06 08:46:18;;;;;;;34.03;21.60;;;2.90;99.90;;;;;;4952431;28;20452;-71
2020/12/06 08:48:45;;;;;;;34.00;22.47;;;2.90;99.90;;;;;;4956159;28;20464;-71
2020/12/06 08:51:22;;;;;;;37.10;23.00;;;3.00;99.90;;;;;;4950080;28;20443;-71
2020/12/06 08:53:48;;;;;;;37.23;22.40;;;3.00;99.90;;;;;;4956935;28;21616;-72
2020/12/06 08:56:23;;;;;;;37.40;23.77;;;3.00;99.90;;;;;;4952844;28;20571;-71
2020/12/06 08:58:49;;;;;;;38.30;22.70;;;3.10;99.90;;;;;;4954587;28;20185;-71
2020/12/06 09:01:14;;;;;;;33.43;21.87;;;3.10;99.90;;;;;;4953898;28;20444;-71
2020/12/06 09:03:40;;;;;;;39.33;22.50;;;3.10;99.90;;;;;;4952449;28;20193;-72
2020/12/06 09:06:14;;;;;;;40.00;22.90;;;3.10;99.90;;;;;;4955018;28;20268;-72
2020/12/06 09:08:39;;;;;;;34.23;21.67;;;3.10;99.90;;;;;;4960846;28;20741;-71
2020/12/06 09:11:05;;;;;;;32.67;21.80;;;3.20;99.90;;;;;;4953114;28;20572;-71
2020/12/06 09:13:30;;;;;;;35.60;22.47;;;3.20;99.90;;;;;;4955102;28;20709;-72
2020/12/06 09:15:56;;;;;;;36.97;22.87;;;3.20;99.90;;;;;;4954928;28;20574;-71
2020/12/06 09:18:22;;;;;;;43.57;24.33;;;3.30;99.90;;;;;;4955562;28;20197;-72
2020/12/06 09:20:47;;;;;;;35.93;23.30;;;3.30;99.90;;;;;;4955522;28;20217;-71
2020/12/06 09:23:13;;;;;;;41.40;22.90;;;3.20;99.90;;;;;;4956339;28;20204;-72
2020/12/06 09:25:39;;;;;;;40.20;22.50;;;3.30;99.90;;;;;;4952875;28;20228;-71
2020/12/06 09:28:04;;;;;;;36.80;23.87;;;3.30;99.90;;;;;;4954802;28;20538;-71
2020/12/06 09:30:30;;;;;;;36.30;22.90;;;3.40;99.90;;;;;;4955471;28;21130;-71
2020/12/06 09:32:56;;;;;;;37.90;21.70;;;3.40;99.90;;;;;;4957087;28;20652;-71
2020/12/06 09:35:21;;;;;;;42.30;23.47;;;3.40;99.90;;;;;;4954561;28;20213;-71
2020/12/06 09:37:47;;;;;;;33.60;21.37;;;3.50;99.90;;;;;;4958823;28;20557;-72
2020/12/06 09:40:12;;;;;;;42.47;25.23;;;3.50;99.90;;;;;;4955371;28;20229;-71
2020/12/06 09:42:39;;;;;;;34.87;22.57;;;3.60;99.90;;;;;;4958326;28;20212;-71
2020/12/06 09:45:04;;;;;;;35.90;20.70;;;3.60;99.90;;;;;;4960389;28;20193;-71
2020/12/06 09:47:30;;;;;;;35.33;23.87;;;3.60;99.90;;;;;;4951175;28;21270;-71
2020/12/06 09:49:55;;;;;;;33.60;22.83;;;3.70;99.90;;;;;;4955715;28;20848;-72
2020/12/06 09:52:21;;;;;;;35.40;21.60;;;3.70;99.90;;;;;;4955603;28;20185;-71
2020/12/06 09:54:47;;;;;;;34.00;20.00;;;3.70;99.90;;;;;;4955170;28;20296;-71
2020/12/06 09:57:12;;;;;;;38.17;21.70;;;3.70;99.90;;;;;;4956096;28;20223;-71
2020/12/06 09:59:38;;;;;;;34.53;21.50;;;3.60;99.90;;;;;;4957490;28;20189;-71
2020/12/06 10:02:03;;;;;;;36.80;22.27;;;3.60;99.90;;;;;;4957481;28;20177;-71
2020/12/06 10:04:29;;;;;;;38.27;23.60;;;3.60;99.90;;;;;;4956979;28;20186;-71
2020/12/06 10:06:55;;;;;;;33.07;21.53;;;3.70;99.90;;;;;;4956342;28;20215;-71
2020/12/06 10:09:21;;;;;;;34.33;22.53;;;3.70;99.90;;;;;;4948973;28;20735;-71
2020/12/06 10:11:46;;;;;;;33.43;21.53;;;3.70;99.90;;;;;;4956606;28;20241;-71
2020/12/06 10:14:12;;;;;;;41.27;22.93;;;3.70;99.90;;;;;;4956268;28;20216;-71
2020/12/06 10:16:38;;;;;;;37.93;21.63;;;3.70;99.90;;;;;;4955896;28;20472;-71
2020/12/06 10:19:04;;;;;;;43.37;26.10;;;3.70;99.90;;;;;;4955724;28;20519;-71
2020/12/06 10:21:29;;;;;;;30.43;21.00;;;3.70;99.90;;;;;;4953773;28;20196;-72
2020/12/06 10:23:55;;;;;;;35.07;22.20;;;3.80;99.90;;;;;;4957282;28;20204;-71
2020/12/06 10:26:20;;;;;;;37.07;24.50;;;3.90;99.90;;;;;;4950934;28;20213;-71
2020/12/06 10:28:46;;;;;;;37.27;23.27;;;4.00;99.90;;;;;;4962206;28;20542;-71
2020/12/06 10:31:12;;;;;;;41.77;24.87;;;4.00;93.60;;;;;;4948736;28;20256;-71
2020/12/06 10:33:37;;;;;;;34.23;21.20;;;4.00;94.10;;;;;;4949876;28;20695;-71
2020/12/06 10:36:03;;;;;;;37.40;21.77;;;4.10;98.70;;;;;;4952675;28;20734;-71
2020/12/06 10:38:29;;;;;;;37.33;24.50;;;4.00;83.10;;;;;;4950136;28;20198;-71
2020/12/06 10:40:54;;;;;;;39.47;23.07;;;4.00;76.30;;;;;;4941911;28;20216;-71
2020/12/06 10:43:20;;;;;;;40.67;23.20;;;4.00;75.50;;;;;;4938664;28;20190;-71
2020/12/06 10:45:46;;;;;;;35.70;23.13;;;4.00;69.90;;;;;;4945771;28;20194;-72
2020/12/06 10:48:11;;;;;;;36.73;22.73;;;4.00;79.70;;;;;;4944527;28;20193;-71
2020/12/06 10:50:37;;;;;;;41.67;23.93;;;4.10;71.40;;;;;;4929365;28;20208;-71
2020/12/06 10:53:02;;;;;;;38.27;23.70;;;4.00;60.20;;;;;;4939987;28;20192;-71
2020/12/06 10:55:28;;;;;;;40.90;24.93;;;4.10;85.60;;;;;;4949785;28;20208;-71
2020/12/06 10:57:54;;;;;;;38.30;23.23;;;4.10;98.30;;;;;;4934366;28;20706;-71
2020/12/06 11:00:21;;;;;;;38.33;24.50;;;4.20;99.90;;;;;;4939368;28;20237;-71
2020/12/06 11:02:46;;;;;;;39.07;24.10;;;4.30;98.70;;;;;;4945042;28;20518;-71
2020/12/06 11:05:12;;;;;;;41.17;26.50;;;4.30;94.40;;;;;;4927821;28;20860;-71
2020/12/06 11:07:38;;;;;;;43.90;27.20;;;4.40;93.20;;;;;;4948678;28;20531;-71
2020/12/06 11:10:04;;;;;;;43.20;26.10;;;4.40;63.60;;;;;;4948678;28;22256;-71
2020/12/06 11:12:30;;;;;;;44.90;27.70;;;4.40;48.40;;;;;;4948670;28;20689;-71
2020/12/06 11:14:55;;;;;;;46.43;26.47;;;4.40;55.60;;;;;;4950602;28;20466;-72
2020/12/06 11:17:21;;;;;;;48.57;27.60;;;4.40;55.70;;;;;;4950477;28;20189;-71
2020/12/06 11:19:46;;;;;;;55.50;28.50;;;4.40;66.10;;;;;;4955734;28;20975;-71
2020/12/06 11:22:12;;;;;;;50.30;28.40;;;4.40;61.10;;;;;;4952679;28;20216;-71
2020/12/06 11:24:38;;;;;;;50.27;29.03;;;4.40;77.20;;;;;;4955696;28;20208;-72
2020/12/06 11:27:04;;;;;;;57.83;32.23;;;4.50;86.00;;;;;;4960902;28;20169;-71
2020/12/06 11:29:29;;;;;;;58.03;32.20;;;4.40;94.00;;;;;;4945798;28;20183;-71
2020/12/06 11:31:55;;;;;;;56.33;30.77;;;4.40;99.90;;;;;;4950047;28;20405;-71
2020/12/06 11:34:21;;;;;;;48.80;28.57;;;4.40;99.90;;;;;;4956111;28;20520;-71
2020/12/06 11:36:50;;;;;;;56.73;29.70;;;4.50;99.90;;;;;;4951216;28;20495;-72
2020/12/06 11:39:16;;;;;;;55.40;30.37;;;4.60;99.90;;;;;;4953809;28;20214;-72
2020/12/06 11:41:42;;;;;;;58.60;28.20;;;4.50;99.90;;;;;;4954940;28;20456;-72
2020/12/06 11:44:07;;;;;;;55.20;28.47;;;4.50;99.90;;;;;;4959474;28;20185;-72
2020/12/06 11:46:33;;;;;;;56.50;29.77;;;4.50;99.90;;;;;;4957980;28;20185;-72
2020/12/06 11:48:59;;;;;;;56.53;30.03;;;4.50;99.90;;;;;;4964795;28;20644;-72
2020/12/06 11:51:24;;;;;;;55.67;30.37;;;4.40;99.90;;;;;;4958587;28;20674;-72
2020/12/06 11:53:50;;;;;;;54.33;31.10;;;4.40;99.90;;;;;;4968244;28;20212;-72
2020/12/06 11:56:16;;;;;;;51.43;29.30;;;4.50;99.90;;;;;;4957884;28;20443;-72
2020/12/06 11:58:44;;;;;;;52.93;30.77;;;4.50;99.90;;;;;;4953896;28;20192;-72
2020/12/06 12:01:10;;;;;;;52.20;30.03;;;4.50;99.90;;;;;;4957043;28;22492;-72
2020/12/06 12:03:36;;;;;;;58.37;31.70;;;4.60;99.90;;;;;;4954047;28;20472;-72
2020/12/06 12:06:02;;;;;;;52.93;30.57;;;4.60;99.90;;;;;;4956004;28;20217;-72
2020/12/06 12:08:28;;;;;;;59.43;32.50;;;4.70;99.90;;;;;;4950655;28;20888;-72
2020/12/06 12:10:53;;;;;;;53.73;30.30;;;4.70;99.90;;;;;;4953694;28;20441;-72
2020/12/06 12:13:19;;;;;;;51.60;30.73;;;4.80;99.90;;;;;;4953366;28;20304;-72
2020/12/06 12:15:47;;;;;;;79.90;46.73;;;4.70;99.90;;;;;;4945102;28;20688;-72
2020/12/06 12:18:13;;;;;;;80.07;49.30;;;4.70;99.90;;;;;;4952799;28;20190;-72
2020/12/06 12:20:39;;;;;;;70.90;42.13;;;4.70;99.90;;;;;;4962214;28;20531;-72
2020/12/06 12:23:04;;;;;;;57.33;33.47;;;4.70;99.90;;;;;;4943643;28;20300;-72
2020/12/06 12:25:30;;;;;;;47.70;28.27;;;4.60;99.90;;;;;;4948161;28;20550;-72
2020/12/06 12:27:56;;;;;;;56.90;34.00;;;4.70;99.90;;;;;;4949890;28;20182;-72
2020/12/06 12:30:21;;;;;;;49.80;28.70;;;4.70;99.90;;;;;;4953568;28;20197;-72
2020/12/06 12:32:47;;;;;;;48.70;29.47;;;4.70;99.90;;;;;;4951514;28;20193;-72
2020/12/06 12:35:12;;;;;;;45.30;26.40;;;4.80;99.90;;;;;;4956460;28;20299;-72
2020/12/06 12:37:38;;;;;;;49.53;28.93;;;4.70;99.90;;;;;;4956553;28;20724;-72
2020/12/06 12:40:04;;;;;;;45.63;27.40;;;4.60;99.90;;;;;;4953380;28;20209;-72
2020/12/06 12:42:29;;;;;;;50.60;28.73;;;4.50;1.00;;;;;;4954920;28;20193;-72